This is the latest recevied weather packets stored in our database for station/object VK4TOM-13. If no packets are shown the sender has not sent any weather packets the latest 10 day(s).
| Time | Temp. | Humidity | Pressure | Rain* | Wind** | Luminosity | Snow |
|---|---|---|---|---|---|---|---|
| 1777874248 | 28.89° C | 70% | 1013.8 hPa | 0 mm | - | - | - |
| 1777873647 | 30° C | 70% | 1014 hPa | 0 mm | - | - | - |
| 1777873046 | 30.56° C | 70% | 1013.9 hPa | 0 mm | - | - | - |
| 1777872445 | 31.67° C | 70% | 1013.7 hPa | 0 mm | - | - | - |
| 1777871844 | 32.22° C | 70% | 1013.8 hPa | 0 mm | - | - | - |
| 1777871243 | 31.67° C | 70% | 1013.9 hPa | 0 mm | - | - | - |
| 1777870642 | 31.67° C | 70% | 1013.8 hPa | 0 mm | - | - | - |
| 1777870041 | 32.22° C | 70% | 1013.8 hPa | 0 mm | - | - | - |
| 1777869440 | 32.22° C | 70% | 1013.9 hPa | 0 mm | - | - | - |
| 1777868839 | 32.22° C | 70% | 1013.8 hPa | 0 mm | - | - | - |
| 1777868238 | 32.78° C | 70% | 1013.8 hPa | 0 mm | - | - | - |
| 1777867637 | 32.78° C | 70% | 1013.8 hPa | 0 mm | - | - | - |
| 1777867035 | 32.22° C | 70% | 1014 hPa | 0 mm | - | - | - |
| 1777866434 | 32.22° C | 70% | 1013.9 hPa | 0 mm | - | - | - |
| 1777865833 | 32.22° C | 70% | 1014.1 hPa | 0 mm | - | - | - |
| 1777865233 | 32.22° C | 70% | 1014.3 hPa | 0 mm | - | - | - |
| 1777864631 | 32.22° C | 70% | 1014.3 hPa | 0 mm | - | - | - |
| 1777864030 | 32.22° C | 70% | 1014.4 hPa | 0 mm | - | - | - |
| 1777863429 | 31.67° C | 70% | 1014.6 hPa | 0 mm | - | - | - |
| 1777862828 | 31.67° C | 70% | 1014.8 hPa | 0 mm | - | - | - |
| 1777860424 | 31.11° C | 70% | 1015.7 hPa | 0 mm | - | - | - |
| 1777858621 | 30° C | 70% | 1016 hPa | 0 mm | - | - | - |
| 1777856817 | 28.89° C | 70% | 1016.5 hPa | 0 mm | - | - | - |
| 1777853812 | 27.78° C | 70% | 1017.4 hPa | 0 mm | - | - | - |
| 1777852009 | 26.67° C | 70% | 1017.5 hPa | 0 mm | - | - | - |
* Rain since midnight (hover to see other rain measurements)
** Current wind speed in m/s (hover to see current wind gust speed)